Terminal Aerodrome Forecast
Issued by NWS

Home | Current Version | Previous Version | Text Only | Print | Product List | Glossary On
Versions: 1 2 3 4 5 6 7 8 9 10 11 12 13 14
000
FTUS45 KABQ 161700
TAFSAF
TAF
KSAF 161736Z 1618/1718 25015KT P6SM SCT250
     FM162000 26015G22KT P6SM BKN250
     FM170000 32019G29KT P6SM BKN100
     FM170200 36012KT P6SM SCT110
     FM170600 15010KT P6SM SKC=

USA.gov is the U.S. government's official web portal to all federal, state and local government web resources and services.